createdAt,value
2019-02-23T00:06:12.412Z,-6.00
2019-02-23T00:21:37.341Z,-6.00
2019-02-23T00:36:42.533Z,-5.90
2019-02-23T00:51:47.932Z,-5.80
2019-02-23T01:06:53.513Z,-5.70
2019-02-23T01:21:59.570Z,-5.80
2019-02-23T01:37:05.228Z,-5.90
2019-02-23T01:52:11.092Z,-6.10
2019-02-23T02:07:16.772Z,-6.00
2019-02-23T02:22:41.950Z,-5.90
2019-02-23T02:38:00.189Z,-6.00
2019-02-23T02:53:06.473Z,-6.30
2019-02-23T03:08:12.696Z,-6.40
2019-02-23T03:23:18.334Z,-6.40
2019-02-23T03:38:42.747Z,-6.30
2019-02-23T03:53:48.530Z,-6.10
2019-02-23T04:09:05.982Z,-5.80
2019-02-23T04:24:11.574Z,-5.70
2019-02-23T04:39:16.998Z,-5.60
2019-02-23T04:54:22.341Z,-5.40
2019-02-23T05:09:46.973Z,-5.40
2019-02-23T05:24:53.510Z,-5.30
2019-02-23T05:39:58.816Z,-5.40
2019-02-23T05:55:04.779Z,-5.50
2019-02-23T06:10:10.777Z,-5.60
2019-02-23T06:25:16.805Z,-5.60
2019-02-23T06:41:16.910Z,-5.60
2019-02-23T06:56:22.662Z,-5.30
2019-02-23T07:11:39.830Z,-4.80
2019-02-23T07:26:45.703Z,-4.40
2019-02-23T07:42:03.709Z,-3.90
2019-02-23T07:57:08.698Z,-3.30
2019-02-23T08:12:14.036Z,-3.00
2019-02-23T08:27:20.494Z,-2.40
2019-02-23T08:42:26.120Z,-1.90
2019-02-23T08:57:31.221Z,-1.50
2019-02-23T09:12:36.422Z,-1.20
2019-02-23T09:27:42.212Z,-0.70
2019-02-23T09:42:48.008Z,-0.40
2019-02-23T09:57:54.542Z,0.20
2019-02-23T10:13:00.023Z,0.50
2019-02-23T10:28:05.787Z,0.60
2019-02-23T10:43:11.075Z,0.70
2019-02-23T10:58:28.471Z,0.90
2019-02-23T11:13:37.940Z,1.00
2019-02-23T11:28:47.301Z,1.10
2019-02-23T11:43:52.260Z,1.10
2019-02-23T11:59:08.977Z,1.10
2019-02-23T12:14:26.339Z,1.20
2019-02-23T12:29:44.065Z,1.30
2019-02-23T12:44:48.956Z,1.30
2019-02-23T12:59:55.017Z,1.40
2019-02-23T13:15:01.221Z,1.50
2019-02-23T13:30:09.598Z,1.60
2019-02-23T13:45:17.467Z,2.20
2019-02-23T14:00:25.944Z,2.40
2019-02-23T14:15:43.228Z,2.60
2019-02-23T14:30:51.869Z,2.50
2019-02-23T14:46:00.011Z,2.20
2019-02-23T15:01:09.377Z,2.10
2019-02-23T15:16:17.659Z,1.80
2019-02-23T15:31:26.016Z,1.80
2019-02-23T15:46:34.113Z,1.60
2019-02-23T16:01:39.533Z,1.20
2019-02-23T16:16:57.077Z,1.00
2019-02-23T16:32:02.389Z,0.60
2019-02-23T16:47:07.597Z,0.30
2019-02-23T17:02:24.424Z,0.00
2019-02-23T17:17:41.347Z,-0.30
2019-02-23T17:32:59.070Z,-0.60
2019-02-23T17:48:04.148Z,-0.70
2019-02-23T18:03:09.364Z,-0.90
2019-02-23T18:18:14.909Z,-0.90
2019-02-23T18:33:20.360Z,-1.00
2019-02-23T18:48:27.307Z,-1.20
2019-02-23T19:03:46.125Z,-1.30
2019-02-23T19:18:51.615Z,-1.40
2019-02-23T19:33:57.135Z,-1.50
2019-02-23T19:49:02.685Z,-1.70
2019-02-23T20:04:20.030Z,-1.80
2019-02-23T20:19:36.560Z,-1.90
2019-02-23T20:34:41.673Z,-1.90
2019-02-23T20:49:47.312Z,-1.80
2019-02-23T21:05:04.913Z,-1.70
2019-02-23T21:36:00.474Z,-1.50
2019-02-23T21:51:05.652Z,-1.50
2019-02-23T22:06:12.495Z,-1.40
2019-02-23T22:21:17.308Z,-1.20
2019-02-23T22:36:22.479Z,-1.20
2019-02-23T22:51:28.014Z,-1.20
2019-02-23T23:06:33.555Z,-1.00
2019-02-23T23:21:38.922Z,-0.80
2019-02-23T23:37:03.276Z,-0.60
2019-02-23T23:52:08.601Z,-0.60
